sensor_id;sensor_type;location;lat;lon;timestamp;temperature;humidity
612;DHT22;293;53.888;11.464;2022-10-17T00:00:40;12.30;99.90
612;DHT22;293;53.888;11.464;2022-10-17T00:03:07;12.30;99.90
612;DHT22;293;53.888;11.464;2022-10-17T00:05:37;12.20;99.90
612;DHT22;293;53.888;11.464;2022-10-17T00:08:04;12.20;99.90
612;DHT22;293;53.888;11.464;2022-10-17T00:10:32;12.20;99.90
612;DHT22;293;53.888;11.464;2022-10-17T00:12:59;12.20;99.90
612;DHT22;293;53.888;11.464;2022-10-17T00:15:26;12.20;99.90
612;DHT22;293;53.888;11.464;2022-10-17T00:17:53;12.20;99.90
612;DHT22;293;53.888;11.464;2022-10-17T00:20:20;12.20;99.90
612;DHT22;293;53.888;11.464;2022-10-17T00:22:46;12.20;99.90
612;DHT22;293;53.888;11.464;2022-10-17T00:25:13;12.20;99.90
612;DHT22;293;53.888;11.464;2022-10-17T00:27:41;12.20;99.90
612;DHT22;293;53.888;11.464;2022-10-17T00:30:11;12.20;99.90
612;DHT22;293;53.888;11.464;2022-10-17T00:32:38;12.20;99.90
612;DHT22;293;53.888;11.464;2022-10-17T00:35:06;12.30;99.90
612;DHT22;293;53.888;11.464;2022-10-17T00:37:33;12.40;99.90
612;DHT22;293;53.888;11.464;2022-10-17T00:40:00;12.40;99.90
612;DHT22;293;53.888;11.464;2022-10-17T00:42:27;12.30;99.90
612;DHT22;293;53.888;11.464;2022-10-17T00:45:15;12.40;99.90
612;DHT22;293;53.888;11.464;2022-10-17T00:47:45;12.50;99.90
612;DHT22;293;53.888;11.464;2022-10-17T00:50:13;12.50;99.90
612;DHT22;293;53.888;11.464;2022-10-17T00:52:40;12.60;99.90
612;DHT22;293;53.888;11.464;2022-10-17T00:55:11;12.60;99.90
612;DHT22;293;53.888;11.464;2022-10-17T00:57:39;12.60;99.90
612;DHT22;293;53.888;11.464;2022-10-17T01:00:10;12.60;99.90
612;DHT22;293;53.888;11.464;2022-10-17T01:02:38;12.50;99.90
612;DHT22;293;53.888;11.464;2022-10-17T01:05:06;12.60;99.90
612;DHT22;293;53.888;11.464;2022-10-17T01:07:34;12.60;99.90
612;DHT22;293;53.888;11.464;2022-10-17T01:10:01;12.70;99.90
612;DHT22;293;53.888;11.464;2022-10-17T01:12:34;12.70;99.90
612;DHT22;293;53.888;11.464;2022-10-17T01:15:10;12.80;99.90
612;DHT22;293;53.888;11.464;2022-10-17T01:17:50;12.80;99.90
612;DHT22;293;53.888;11.464;2022-10-17T01:20:44;12.80;99.90
612;DHT22;293;53.888;11.464;2022-10-17T01:23:33;12.80;99.90
612;DHT22;293;53.888;11.464;2022-10-17T01:26:10;12.80;99.90
612;DHT22;293;53.888;11.464;2022-10-17T01:28:57;12.80;99.90
612;DHT22;293;53.888;11.464;2022-10-17T01:31:31;12.80;99.90
612;DHT22;293;53.888;11.464;2022-10-17T01:34:06;12.90;99.90
612;DHT22;293;53.888;11.464;2022-10-17T01:36:41;12.90;99.90
612;DHT22;293;53.888;11.464;2022-10-17T01:39:16;13.00;99.90
612;DHT22;293;53.888;11.464;2022-10-17T01:41:49;13.00;99.90
612;DHT22;293;53.888;11.464;2022-10-17T01:44:20;13.00;99.90
612;DHT22;293;53.888;11.464;2022-10-17T01:46:53;13.10;99.90
612;DHT22;293;53.888;11.464;2022-10-17T01:49:25;13.10;99.90
612;DHT22;293;53.888;11.464;2022-10-17T01:51:57;13.10;99.90
612;DHT22;293;53.888;11.464;2022-10-17T01:54:29;13.10;99.90
612;DHT22;293;53.888;11.464;2022-10-17T01:56:59;13.10;99.90
612;DHT22;293;53.888;11.464;2022-10-17T01:59:30;13.10;99.90
612;DHT22;293;53.888;11.464;2022-10-17T02:02:03;13.20;99.90
612;DHT22;293;53.888;11.464;2022-10-17T02:04:31;13.20;99.90
612;DHT22;293;53.888;11.464;2022-10-17T02:07:05;13.20;99.90
612;DHT22;293;53.888;11.464;2022-10-17T02:09:32;13.20;99.90
612;DHT22;293;53.888;11.464;2022-10-17T02:12:16;13.20;99.90
612;DHT22;293;53.888;11.464;2022-10-17T02:14:57;13.20;99.90
612;DHT22;293;53.888;11.464;2022-10-17T02:17:39;13.20;99.90
612;DHT22;293;53.888;11.464;2022-10-17T02:20:16;13.30;99.90
612;DHT22;293;53.888;11.464;2022-10-17T02:22:50;13.20;99.90
612;DHT22;293;53.888;11.464;2022-10-17T02:25:24;13.20;99.90
612;DHT22;293;53.888;11.464;2022-10-17T02:27:55;13.30;99.90
612;DHT22;293;53.888;11.464;2022-10-17T02:30:30;13.30;99.90
612;DHT22;293;53.888;11.464;2022-10-17T02:33:03;13.30;99.90
612;DHT22;293;53.888;11.464;2022-10-17T02:35:35;13.30;99.90
612;DHT22;293;53.888;11.464;2022-10-17T02:38:04;13.30;99.90
612;DHT22;293;53.888;11.464;2022-10-17T02:40:35;13.20;99.90
612;DHT22;293;53.888;11.464;2022-10-17T02:43:03;13.30;99.90
612;DHT22;293;53.888;11.464;2022-10-17T02:45:30;13.20;99.90
612;DHT22;293;53.888;11.464;2022-10-17T02:48:04;13.20;99.90
612;DHT22;293;53.888;11.464;2022-10-17T02:50:39;13.20;99.90
612;DHT22;293;53.888;11.464;2022-10-17T02:53:11;13.20;99.90
612;DHT22;293;53.888;11.464;2022-10-17T02:55:45;13.20;99.90
612;DHT22;293;53.888;11.464;2022-10-17T02:58:17;13.30;99.90
612;DHT22;293;53.888;11.464;2022-10-17T03:00:45;13.30;99.90
612;DHT22;293;53.888;11.464;2022-10-17T03:03:21;13.30;99.90
612;DHT22;293;53.888;11.464;2022-10-17T03:05:48;13.30;99.90
612;DHT22;293;53.888;11.464;2022-10-17T03:08:15;13.30;99.90
612;DHT22;293;53.888;11.464;2022-10-17T03:10:42;13.30;99.90
612;DHT22;293;53.888;11.464;2022-10-17T03:13:09;13.30;99.90
612;DHT22;293;53.888;11.464;2022-10-17T03:15:35;13.40;99.90
612;DHT22;293;53.888;11.464;2022-10-17T03:18:03;13.40;99.90
612;DHT22;293;53.888;11.464;2022-10-17T03:20:31;13.50;99.90
612;DHT22;293;53.888;11.464;2022-10-17T03:22:58;13.50;99.90
612;DHT22;293;53.888;11.464;2022-10-17T03:25:25;13.50;99.90
612;DHT22;293;53.888;11.464;2022-10-17T03:27:51;13.50;99.90
612;DHT22;293;53.888;11.464;2022-10-17T03:30:19;13.60;99.90
612;DHT22;293;53.888;11.464;2022-10-17T03:32:45;13.60;99.90
612;DHT22;293;53.888;11.464;2022-10-17T03:35:12;13.60;99.90
612;DHT22;293;53.888;11.464;2022-10-17T03:37:40;13.70;99.90
612;DHT22;293;53.888;11.464;2022-10-17T03:40:08;13.70;99.90
612;DHT22;293;53.888;11.464;2022-10-17T03:42:34;13.70;99.90
612;DHT22;293;53.888;11.464;2022-10-17T03:45:02;13.70;99.90
612;DHT22;293;53.888;11.464;2022-10-17T03:47:29;13.60;99.90
612;DHT22;293;53.888;11.464;2022-10-17T03:49:55;13.70;99.90
612;DHT22;293;53.888;11.464;2022-10-17T03:52:22;13.70;99.90
612;DHT22;293;53.888;11.464;2022-10-17T03:54:50;13.70;99.90
612;DHT22;293;53.888;11.464;2022-10-17T03:57:17;13.70;99.90
612;DHT22;293;53.888;11.464;2022-10-17T03:59:44;13.60;99.90
612;DHT22;293;53.888;11.464;2022-10-17T04:02:11;13.60;99.90
612;DHT22;293;53.888;11.464;2022-10-17T04:04:38;13.70;99.90
612;DHT22;293;53.888;11.464;2022-10-17T04:07:04;13.60;99.90
612;DHT22;293;53.888;11.464;2022-10-17T04:09:31;13.60;99.90
612;DHT22;293;53.888;11.464;2022-10-17T04:11:59;13.60;99.90
612;DHT22;293;53.888;11.464;2022-10-17T04:14:26;13.60;99.90
612;DHT22;293;53.888;11.464;2022-10-17T04:16:53;13.60;99.90
612;DHT22;293;53.888;11.464;2022-10-17T04:19:20;13.60;99.90
612;DHT22;293;53.888;11.464;2022-10-17T04:21:47;13.60;99.90
612;DHT22;293;53.888;11.464;2022-10-17T04:24:14;13.60;99.90
612;DHT22;293;53.888;11.464;2022-10-17T04:26:41;13.60;99.90
612;DHT22;293;53.888;11.464;2022-10-17T04:29:09;13.60;99.90
612;DHT22;293;53.888;11.464;2022-10-17T04:31:36;13.60;99.90
612;DHT22;293;53.888;11.464;2022-10-17T04:34:03;13.60;99.90
612;DHT22;293;53.888;11.464;2022-10-17T04:36:30;13.60;99.90
612;DHT22;293;53.888;11.464;2022-10-17T04:38:57;13.50;99.90
612;DHT22;293;53.888;11.464;2022-10-17T04:41:26;13.40;99.90
612;DHT22;293;53.888;11.464;2022-10-17T04:43:53;13.40;99.90
612;DHT22;293;53.888;11.464;2022-10-17T04:46:21;13.40;99.90
612;DHT22;293;53.888;11.464;2022-10-17T04:48:48;13.50;99.90
612;DHT22;293;53.888;11.464;2022-10-17T04:51:16;13.40;99.90
612;DHT22;293;53.888;11.464;2022-10-17T04:53:44;13.40;99.90
612;DHT22;293;53.888;11.464;2022-10-17T04:56:12;13.40;99.90
612;DHT22;293;53.888;11.464;2022-10-17T04:58:40;13.50;99.90
612;DHT22;293;53.888;11.464;2022-10-17T05:01:09;13.40;99.90
612;DHT22;293;53.888;11.464;2022-10-17T05:03:37;13.50;99.90
612;DHT22;293;53.888;11.464;2022-10-17T05:06:05;13.50;99.90
612;DHT22;293;53.888;11.464;2022-10-17T05:08:33;13.50;99.90
612;DHT22;293;53.888;11.464;2022-10-17T05:11:00;13.50;99.90
612;DHT22;293;53.888;11.464;2022-10-17T05:13:27;13.50;99.90
612;DHT22;293;53.888;11.464;2022-10-17T05:15:57;13.60;99.90
612;DHT22;293;53.888;11.464;2022-10-17T05:18:24;13.70;99.90
612;DHT22;293;53.888;11.464;2022-10-17T05:20:52;13.70;99.90
612;DHT22;293;53.888;11.464;2022-10-17T05:23:19;13.70;99.90
612;DHT22;293;53.888;11.464;2022-10-17T05:25:46;13.60;99.90
612;DHT22;293;53.888;11.464;2022-10-17T05:28:12;13.60;99.90
612;DHT22;293;53.888;11.464;2022-10-17T05:30:39;13.50;99.90
612;DHT22;293;53.888;11.464;2022-10-17T05:33:06;13.50;99.90
612;DHT22;293;53.888;11.464;2022-10-17T05:35:33;13.50;99.90
612;DHT22;293;53.888;11.464;2022-10-17T05:38:01;13.60;99.90
612;DHT22;293;53.888;11.464;2022-10-17T05:40:28;13.50;99.90
612;DHT22;293;53.888;11.464;2022-10-17T05:42:55;13.50;99.90
612;DHT22;293;53.888;11.464;2022-10-17T05:45:22;13.50;99.90
612;DHT22;293;53.888;11.464;2022-10-17T05:47:49;13.60;99.90
612;DHT22;293;53.888;11.464;2022-10-17T05:50:16;13.50;99.90
612;DHT22;293;53.888;11.464;2022-10-17T05:52:45;13.50;99.90
612;DHT22;293;53.888;11.464;2022-10-17T05:55:13;13.60;99.90
612;DHT22;293;53.888;11.464;2022-10-17T05:57:40;13.50;99.90
612;DHT22;293;53.888;11.464;2022-10-17T06:00:08;13.50;99.90
612;DHT22;293;53.888;11.464;2022-10-17T06:02:35;13.50;99.90
612;DHT22;293;53.888;11.464;2022-10-17T06:05:02;13.50;99.90
612;DHT22;293;53.888;11.464;2022-10-17T06:07:28;13.50;99.90
612;DHT22;293;53.888;11.464;2022-10-17T06:09:55;13.50;99.90
612;DHT22;293;53.888;11.464;2022-10-17T06:12:24;13.40;99.90
612;DHT22;293;53.888;11.464;2022-10-17T06:14:51;13.40;99.90
612;DHT22;293;53.888;11.464;2022-10-17T06:17:18;13.40;99.90
612;DHT22;293;53.888;11.464;2022-10-17T06:19:45;13.40;99.90
612;DHT22;293;53.888;11.464;2022-10-17T06:22:12;13.40;99.90
612;DHT22;293;53.888;11.464;2022-10-17T06:24:39;13.40;99.90
612;DHT22;293;53.888;11.464;2022-10-17T06:27:07;13.40;99.90
612;DHT22;293;53.888;11.464;2022-10-17T06:29:35;13.40;99.90
612;DHT22;293;53.888;11.464;2022-10-17T06:32:02;13.50;99.90
612;DHT22;293;53.888;11.464;2022-10-17T06:34:29;13.50;99.90
612;DHT22;293;53.888;11.464;2022-10-17T06:36:56;13.50;99.90
612;DHT22;293;53.888;11.464;2022-10-17T06:39:23;13.50;99.90
612;DHT22;293;53.888;11.464;2022-10-17T06:41:51;13.50;99.90
612;DHT22;293;53.888;11.464;2022-10-17T06:44:18;13.60;99.90
612;DHT22;293;53.888;11.464;2022-10-17T06:46:48;13.60;99.90
612;DHT22;293;53.888;11.464;2022-10-17T06:49:14;13.60;99.90
612;DHT22;293;53.888;11.464;2022-10-17T06:51:41;13.60;99.90
612;DHT22;293;53.888;11.464;2022-10-17T06:54:08;13.70;99.90
612;DHT22;293;53.888;11.464;2022-10-17T06:56:35;13.70;99.90
612;DHT22;293;53.888;11.464;2022-10-17T06:59:01;13.80;99.90
612;DHT22;293;53.888;11.464;2022-10-17T07:01:30;13.90;99.90
612;DHT22;293;53.888;11.464;2022-10-17T07:03:58;13.90;99.90
612;DHT22;293;53.888;11.464;2022-10-17T07:06:25;14.00;99.90
612;DHT22;293;53.888;11.464;2022-10-17T07:08:52;14.00;99.90
612;DHT22;293;53.888;11.464;2022-10-17T07:11:21;14.10;99.90
612;DHT22;293;53.888;11.464;2022-10-17T07:13:47;14.20;99.90
612;DHT22;293;53.888;11.464;2022-10-17T07:16:15;14.30;99.90
612;DHT22;293;53.888;11.464;2022-10-17T07:18:42;14.30;99.90
612;DHT22;293;53.888;11.464;2022-10-17T07:21:10;14.40;99.90
612;DHT22;293;53.888;11.464;2022-10-17T07:23:37;14.40;99.90
612;DHT22;293;53.888;11.464;2022-10-17T07:26:06;14.50;99.90
612;DHT22;293;53.888;11.464;2022-10-17T07:28:33;14.50;99.90
612;DHT22;293;53.888;11.464;2022-10-17T07:31:03;14.60;99.90
612;DHT22;293;53.888;11.464;2022-10-17T07:33:30;14.70;99.90
612;DHT22;293;53.888;11.464;2022-10-17T07:35:58;14.80;99.90
612;DHT22;293;53.888;11.464;2022-10-17T07:38:26;14.90;99.90
612;DHT22;293;53.888;11.464;2022-10-17T07:40:54;14.90;99.90
612;DHT22;293;53.888;11.464;2022-10-17T07:43:21;15.00;99.90
612;DHT22;293;53.888;11.464;2022-10-17T07:45:49;15.00;99.90
612;DHT22;293;53.888;11.464;2022-10-17T07:48:16;15.10;99.90
612;DHT22;293;53.888;11.464;2022-10-17T07:50:43;15.20;99.90
612;DHT22;293;53.888;11.464;2022-10-17T07:53:10;15.20;99.90
612;DHT22;293;53.888;11.464;2022-10-17T07:55:38;15.30;99.90
612;DHT22;293;53.888;11.464;2022-10-17T07:58:07;15.40;99.90
612;DHT22;293;53.888;11.464;2022-10-17T08:00:34;15.50;99.90
612;DHT22;293;53.888;11.464;2022-10-17T08:03:02;15.50;99.90
612;DHT22;293;53.888;11.464;2022-10-17T08:05:29;15.60;99.90
612;DHT22;293;53.888;11.464;2022-10-17T08:07:56;15.70;99.90
612;DHT22;293;53.888;11.464;2022-10-17T08:10:23;15.80;99.90
612;DHT22;293;53.888;11.464;2022-10-17T08:12:53;15.90;99.90
612;DHT22;293;53.888;11.464;2022-10-17T08:15:20;16.00;99.90
612;DHT22;293;53.888;11.464;2022-10-17T08:17:47;16.10;99.90
612;DHT22;293;53.888;11.464;2022-10-17T08:20:14;16.20;99.90
612;DHT22;293;53.888;11.464;2022-10-17T08:22:41;16.20;99.90
612;DHT22;293;53.888;11.464;2022-10-17T08:25:08;16.30;99.90
612;DHT22;293;53.888;11.464;2022-10-17T08:27:35;16.40;99.90
612;DHT22;293;53.888;11.464;2022-10-17T08:30:04;16.50;99.90
612;DHT22;293;53.888;11.464;2022-10-17T08:32:31;16.70;99.90
612;DHT22;293;53.888;11.464;2022-10-17T08:34:58;16.90;99.90
612;DHT22;293;53.888;11.464;2022-10-17T08:37:25;16.90;99.90
612;DHT22;293;53.888;11.464;2022-10-17T08:39:52;17.00;99.90
612;DHT22;293;53.888;11.464;2022-10-17T08:42:40;17.00;99.90
612;DHT22;293;53.888;11.464;2022-10-17T08:45:16;17.20;99.90
612;DHT22;293;53.888;11.464;2022-10-17T08:47:46;17.20;99.90
612;DHT22;293;53.888;11.464;2022-10-17T08:50:30;17.30;99.90
612;DHT22;293;53.888;11.464;2022-10-17T08:53:03;17.40;99.90
612;DHT22;293;53.888;11.464;2022-10-17T08:55:35;17.50;99.90
612;DHT22;293;53.888;11.464;2022-10-17T08:58:03;17.60;99.90
612;DHT22;293;53.888;11.464;2022-10-17T09:00:32;17.70;99.90
612;DHT22;293;53.888;11.464;2022-10-17T09:03:21;17.90;99.90
612;DHT22;293;53.888;11.464;2022-10-17T09:05:59;18.00;99.90
612;DHT22;293;53.888;11.464;2022-10-17T09:08:38;18.20;99.90
612;DHT22;293;53.888;11.464;2022-10-17T09:11:13;18.40;99.90
612;DHT22;293;53.888;11.464;2022-10-17T09:13:51;18.50;99.90
612;DHT22;293;53.888;11.464;2022-10-17T09:16:35;18.70;99.90
612;DHT22;293;53.888;11.464;2022-10-17T09:19:09;18.70;99.90
612;DHT22;293;53.888;11.464;2022-10-17T09:21:42;18.80;99.90
612;DHT22;293;53.888;11.464;2022-10-17T09:24:14;18.80;99.90
612;DHT22;293;53.888;11.464;2022-10-17T09:26:44;18.90;99.90
612;DHT22;293;53.888;11.464;2022-10-17T09:29:17;19.00;99.90
612;DHT22;293;53.888;11.464;2022-10-17T09:31:52;19.00;99.90
612;DHT22;293;53.888;11.464;2022-10-17T09:34:28;19.10;99.90
612;DHT22;293;53.888;11.464;2022-10-17T09:36:57;19.10;99.90
612;DHT22;293;53.888;11.464;2022-10-17T09:39:25;19.10;99.90
612;DHT22;293;53.888;11.464;2022-10-17T09:41:58;19.10;99.90
612;DHT22;293;53.888;11.464;2022-10-17T09:44:29;19.10;99.90
612;DHT22;293;53.888;11.464;2022-10-17T09:47:05;19.10;99.90
612;DHT22;293;53.888;11.464;2022-10-17T09:49:36;19.20;99.90
612;DHT22;293;53.888;11.464;2022-10-17T09:52:05;19.20;99.90
612;DHT22;293;53.888;11.464;2022-10-17T09:54:41;19.20;99.90
612;DHT22;293;53.888;11.464;2022-10-17T09:57:10;19.20;99.90
612;DHT22;293;53.888;11.464;2022-10-17T09:59:38;19.30;99.90
612;DHT22;293;53.888;11.464;2022-10-17T10:02:18;19.40;99.90
612;DHT22;293;53.888;11.464;2022-10-17T10:04:59;19.50;99.90
612;DHT22;293;53.888;11.464;2022-10-17T10:07:28;19.60;99.90
612;DHT22;293;53.888;11.464;2022-10-17T10:09:56;19.70;99.90
612;DHT22;293;53.888;11.464;2022-10-17T10:12:25;19.70;99.90
612;DHT22;293;53.888;11.464;2022-10-17T10:14:52;19.80;99.90
612;DHT22;293;53.888;11.464;2022-10-17T10:17:37;19.90;99.90
612;DHT22;293;53.888;11.464;2022-10-17T10:20:26;20.10;99.90
612;DHT22;293;53.888;11.464;2022-10-17T10:23:11;20.20;99.90
612;DHT22;293;53.888;11.464;2022-10-17T10:25:49;20.40;99.90
612;DHT22;293;53.888;11.464;2022-10-17T10:28:17;20.50;99.90
612;DHT22;293;53.888;11.464;2022-10-17T10:30:47;20.50;99.90
612;DHT22;293;53.888;11.464;2022-10-17T10:33:18;20.50;99.90
612;DHT22;293;53.888;11.464;2022-10-17T10:35:55;20.50;99.90
612;DHT22;293;53.888;11.464;2022-10-17T10:38:23;20.60;99.90
612;DHT22;293;53.888;11.464;2022-10-17T10:40:52;20.50;99.90
612;DHT22;293;53.888;11.464;2022-10-17T10:43:22;20.50;99.90
612;DHT22;293;53.888;11.464;2022-10-17T10:45:50;20.60;99.90
612;DHT22;293;53.888;11.464;2022-10-17T10:48:21;20.60;99.90
612;DHT22;293;53.888;11.464;2022-10-17T10:50:50;20.50;99.90
612;DHT22;293;53.888;11.464;2022-10-17T10:53:31;20.50;99.90
612;DHT22;293;53.888;11.464;2022-10-17T10:56:01;20.60;99.90
612;DHT22;293;53.888;11.464;2022-10-17T10:58:37;20.60;99.90
612;DHT22;293;53.888;11.464;2022-10-17T11:01:08;20.70;99.90
612;DHT22;293;53.888;11.464;2022-10-17T11:03:40;20.80;99.90
612;DHT22;293;53.888;11.464;2022-10-17T11:06:13;20.90;99.90
612;DHT22;293;53.888;11.464;2022-10-17T11:08:44;21.00;99.90
612;DHT22;293;53.888;11.464;2022-10-17T11:11:16;21.10;99.90
612;DHT22;293;53.888;11.464;2022-10-17T11:13:52;21.20;99.90
612;DHT22;293;53.888;11.464;2022-10-17T11:16:26;21.30;99.90
612;DHT22;293;53.888;11.464;2022-10-17T11:19:02;21.50;99.90
612;DHT22;293;53.888;11.464;2022-10-17T11:21:37;21.60;99.90
612;DHT22;293;53.888;11.464;2022-10-17T11:24:14;21.70;99.90
612;DHT22;293;53.888;11.464;2022-10-17T11:26:46;21.90;99.90
612;DHT22;293;53.888;11.464;2022-10-17T11:29:15;21.90;99.90
612;DHT22;293;53.888;11.464;2022-10-17T11:31:46;21.90;99.90
612;DHT22;293;53.888;11.464;2022-10-17T11:34:19;22.00;99.90
612;DHT22;293;53.888;11.464;2022-10-17T11:36:49;22.10;99.90
612;DHT22;293;53.888;11.464;2022-10-17T11:39:19;22.20;99.90
612;DHT22;293;53.888;11.464;2022-10-17T11:41:50;22.20;99.90
612;DHT22;293;53.888;11.464;2022-10-17T11:44:22;22.20;99.90
612;DHT22;293;53.888;11.464;2022-10-17T11:46:54;22.10;99.90
612;DHT22;293;53.888;11.464;2022-10-17T11:49:27;22.10;99.90
612;DHT22;293;53.888;11.464;2022-10-17T11:52:04;22.00;99.90
612;DHT22;293;53.888;11.464;2022-10-17T11:54:41;22.00;99.90
612;DHT22;293;53.888;11.464;2022-10-17T11:57:31;21.90;99.90
612;DHT22;293;53.888;11.464;2022-10-17T12:00:20;21.90;99.90
612;DHT22;293;53.888;11.464;2022-10-17T12:02:54;22.00;99.90
612;DHT22;293;53.888;11.464;2022-10-17T12:05:30;22.00;99.90
612;DHT22;293;53.888;11.464;2022-10-17T12:08:04;22.10;99.90
612;DHT22;293;53.888;11.464;2022-10-17T12:10:38;22.10;99.90
612;DHT22;293;53.888;11.464;2022-10-17T12:13:48;22.10;99.90
612;DHT22;293;53.888;11.464;2022-10-17T12:16:49;22.10;99.90
612;DHT22;293;53.888;11.464;2022-10-17T12:19:24;22.10;99.90
612;DHT22;293;53.888;11.464;2022-10-17T12:21:56;22.10;99.90
612;DHT22;293;53.888;11.464;2022-10-17T12:27:21;22.20;99.90
612;DHT22;293;53.888;11.464;2022-10-17T12:29:49;22.30;99.90
612;DHT22;293;53.888;11.464;2022-10-17T12:32:16;22.30;99.90
612;DHT22;293;53.888;11.464;2022-10-17T12:34:51;22.30;99.90
612;DHT22;293;53.888;11.464;2022-10-17T12:43:56;22.30;99.90
612;DHT22;293;53.888;11.464;2022-10-17T12:46:44;22.30;99.90
612;DHT22;293;53.888;11.464;2022-10-17T12:49:39;22.30;99.90
612;DHT22;293;53.888;11.464;2022-10-17T12:55:10;22.40;99.90
612;DHT22;293;53.888;11.464;2022-10-17T12:57:48;22.40;99.90
612;DHT22;293;53.888;11.464;2022-10-17T13:00:21;22.40;99.90
612;DHT22;293;53.888;11.464;2022-10-17T13:02:52;22.30;99.90
612;DHT22;293;53.888;11.464;2022-10-17T13:05:25;22.30;99.90
612;DHT22;293;53.888;11.464;2022-10-17T13:07:54;22.30;99.90
612;DHT22;293;53.888;11.464;2022-10-17T13:10:25;22.20;99.90
612;DHT22;293;53.888;11.464;2022-10-17T13:13:01;22.10;99.90
612;DHT22;293;53.888;11.464;2022-10-17T13:15:30;22.00;99.90
612;DHT22;293;53.888;11.464;2022-10-17T13:17:58;21.90;99.90
612;DHT22;293;53.888;11.464;2022-10-17T13:20:27;21.80;99.90
612;DHT22;293;53.888;11.464;2022-10-17T13:22:55;21.70;99.90
612;DHT22;293;53.888;11.464;2022-10-17T13:25:24;21.70;99.90
612;DHT22;293;53.888;11.464;2022-10-17T13:28:03;21.60;99.90
612;DHT22;293;53.888;11.464;2022-10-17T13:30:33;21.50;99.90
612;DHT22;293;53.888;11.464;2022-10-17T13:33:01;21.50;99.90
612;DHT22;293;53.888;11.464;2022-10-17T13:35:30;21.40;99.90
612;DHT22;293;53.888;11.464;2022-10-17T13:38:01;21.30;99.90
612;DHT22;293;53.888;11.464;2022-10-17T13:40:29;21.30;99.90
612;DHT22;293;53.888;11.464;2022-10-17T13:42:58;21.30;99.90
612;DHT22;293;53.888;11.464;2022-10-17T13:45:29;21.30;99.90
612;DHT22;293;53.888;11.464;2022-10-17T13:48:00;21.30;99.90
612;DHT22;293;53.888;11.464;2022-10-17T13:50:32;21.30;99.90
612;DHT22;293;53.888;11.464;2022-10-17T13:53:13;21.30;99.90
612;DHT22;293;53.888;11.464;2022-10-17T13:55:53;21.20;99.90
612;DHT22;293;53.888;11.464;2022-10-17T13:58:20;21.20;99.90
612;DHT22;293;53.888;11.464;2022-10-17T14:00:47;21.10;99.90
612;DHT22;293;53.888;11.464;2022-10-17T14:03:16;21.10;99.90
612;DHT22;293;53.888;11.464;2022-10-17T14:06:05;21.00;99.90
612;DHT22;293;53.888;11.464;2022-10-17T14:08:35;21.00;99.90
612;DHT22;293;53.888;11.464;2022-10-17T14:11:13;21.00;99.90
612;DHT22;293;53.888;11.464;2022-10-17T14:13:40;20.90;99.90
612;DHT22;293;53.888;11.464;2022-10-17T14:16:08;20.90;99.90
612;DHT22;293;53.888;11.464;2022-10-17T14:18:37;20.90;99.90
612;DHT22;293;53.888;11.464;2022-10-17T14:21:05;20.80;99.90
612;DHT22;293;53.888;11.464;2022-10-17T14:23:35;20.80;99.90
612;DHT22;293;53.888;11.464;2022-10-17T14:26:12;20.70;99.90
612;DHT22;293;53.888;11.464;2022-10-17T14:28:40;20.70;99.90
612;DHT22;293;53.888;11.464;2022-10-17T14:31:17;20.60;99.90
612;DHT22;293;53.888;11.464;2022-10-17T14:33:47;20.60;99.90
612;DHT22;293;53.888;11.464;2022-10-17T14:36:15;20.50;99.90
612;DHT22;293;53.888;11.464;2022-10-17T14:38:44;20.40;99.90
612;DHT22;293;53.888;11.464;2022-10-17T14:41:14;20.40;99.90
612;DHT22;293;53.888;11.464;2022-10-17T14:43:43;20.30;99.90
612;DHT22;293;53.888;11.464;2022-10-17T14:46:13;20.30;99.90
612;DHT22;293;53.888;11.464;2022-10-17T14:48:41;20.30;99.90
612;DHT22;293;53.888;11.464;2022-10-17T14:51:11;20.20;99.90
612;DHT22;293;53.888;11.464;2022-10-17T14:53:39;20.20;99.90
612;DHT22;293;53.888;11.464;2022-10-17T14:56:22;20.20;99.90
612;DHT22;293;53.888;11.464;2022-10-17T14:58:49;20.10;99.90
612;DHT22;293;53.888;11.464;2022-10-17T15:01:16;20.10;99.90
612;DHT22;293;53.888;11.464;2022-10-17T15:03:43;20.10;99.90
612;DHT22;293;53.888;11.464;2022-10-17T15:06:18;20.00;99.90
612;DHT22;293;53.888;11.464;2022-10-17T15:08:45;20.00;99.90
612;DHT22;293;53.888;11.464;2022-10-17T15:11:12;19.90;99.90
612;DHT22;293;53.888;11.464;2022-10-17T15:13:38;19.90;99.90
612;DHT22;293;53.888;11.464;2022-10-17T15:16:09;19.90;99.90
612;DHT22;293;53.888;11.464;2022-10-17T15:18:39;19.90;99.90
612;DHT22;293;53.888;11.464;2022-10-17T15:21:10;19.90;99.90
612;DHT22;293;53.888;11.464;2022-10-17T15:23:38;19.80;99.90
612;DHT22;293;53.888;11.464;2022-10-17T15:26:12;19.80;99.90
612;DHT22;293;53.888;11.464;2022-10-17T15:28:39;19.70;99.90
612;DHT22;293;53.888;11.464;2022-10-17T15:31:09;19.60;99.90
612;DHT22;293;53.888;11.464;2022-10-17T15:33:36;19.60;99.90
612;DHT22;293;53.888;11.464;2022-10-17T15:36:03;19.60;99.90
612;DHT22;293;53.888;11.464;2022-10-17T15:38:30;19.50;99.90
612;DHT22;293;53.888;11.464;2022-10-17T15:40:58;19.50;99.90
612;DHT22;293;53.888;11.464;2022-10-17T15:43:25;19.40;99.90
612;DHT22;293;53.888;11.464;2022-10-17T15:45:52;19.40;99.90
612;DHT22;293;53.888;11.464;2022-10-17T15:48:28;19.30;99.90
612;DHT22;293;53.888;11.464;2022-10-17T15:50:56;19.30;99.90
612;DHT22;293;53.888;11.464;2022-10-17T15:53:23;19.30;99.90
612;DHT22;293;53.888;11.464;2022-10-17T15:55:50;19.20;99.90
612;DHT22;293;53.888;11.464;2022-10-17T15:58:18;19.10;99.90
612;DHT22;293;53.888;11.464;2022-10-17T16:00:45;19.10;99.90
612;DHT22;293;53.888;11.464;2022-10-17T16:03:12;19.10;99.90
612;DHT22;293;53.888;11.464;2022-10-17T16:05:39;19.00;99.90
612;DHT22;293;53.888;11.464;2022-10-17T16:08:06;19.00;99.90
612;DHT22;293;53.888;11.464;2022-10-17T16:10:34;18.90;99.90
612;DHT22;293;53.888;11.464;2022-10-17T16:13:02;18.80;99.90
612;DHT22;293;53.888;11.464;2022-10-17T16:15:31;18.80;99.90
612;DHT22;293;53.888;11.464;2022-10-17T16:17:58;18.60;99.90
612;DHT22;293;53.888;11.464;2022-10-17T16:20:25;18.50;99.90
612;DHT22;293;53.888;11.464;2022-10-17T16:22:52;18.40;99.90
612;DHT22;293;53.888;11.464;2022-10-17T16:25:25;18.40;99.90
612;DHT22;293;53.888;11.464;2022-10-17T16:27:54;18.30;99.90
612;DHT22;293;53.888;11.464;2022-10-17T16:30:23;18.20;99.90
612;DHT22;293;53.888;11.464;2022-10-17T16:32:52;18.10;99.90
612;DHT22;293;53.888;11.464;2022-10-17T16:35:21;18.10;99.90
612;DHT22;293;53.888;11.464;2022-10-17T16:37:48;18.10;99.90
612;DHT22;293;53.888;11.464;2022-10-17T16:40:15;18.10;99.90
612;DHT22;293;53.888;11.464;2022-10-17T16:42:42;18.10;99.90
612;DHT22;293;53.888;11.464;2022-10-17T16:45:15;18.10;99.90
612;DHT22;293;53.888;11.464;2022-10-17T16:47:42;18.00;99.90
612;DHT22;293;53.888;11.464;2022-10-17T16:50:10;18.00;99.90